Time;durP1;ratioP1;P1;durP2;ratioP2;P2;SDS_P1;SDS_P2;PMS_P1;PMS_P2;Temp;Humidity;BMP_temperature;BMP_pressure;BME280_temperature;BME280_humidity;BME280_pressure;Samples;Min_cycle;Max_cycle;Signal;HPM_P1;HPM_P2
2023/01/05 00:01:16;;;;;;;27.67;6.38;;;;;;;9.72;100.00;101630.81;5052394;28;20036;-54
2023/01/05 00:03:42;;;;;;;29.00;5.20;;;;;;;9.72;100.00;101638.78;5048752;28;20029;-52
2023/01/05 00:06:13;;;;;;;32.95;6.47;;;;;;;9.71;100.00;101628.25;5051144;28;20035;-54
2023/01/05 00:08:39;;;;;;;33.55;7.05;;;;;;;9.71;100.00;101628.25;5057869;28;20104;-56
2023/01/05 00:22:29;;;;;;;31.75;6.00;;;;;;;9.59;100.00;101628.06;5048422;28;20051;-53
2023/01/05 00:24:59;;;;;;;;;;;;;;;9.62;100.00;101637.63;5046201;28;20033;-56
2023/01/05 00:27:25;;;;;;;30.63;5.57;;;;;;;9.54;100.00;101635.44;5056904;28;19916;-54
2023/01/05 00:29:51;;;;;;;25.73;5.78;;;;;;;9.52;100.00;101636.47;5041864;28;20434;-56
2023/01/05 00:32:16;;;;;;;31.05;6.00;;;;;;;9.51;100.00;101643.59;5051806;28;20032;-56
2023/01/05 00:34:42;;;;;;;30.92;6.40;;;;;;;9.50;100.00;101646.31;5051141;28;20029;-56
2023/01/05 00:37:07;;;;;;;37.28;6.40;;;;;;;9.46;100.00;101643.00;5052384;28;20033;-56
2023/01/05 00:39:32;;;;;;;33.65;6.30;;;;;;;9.44;100.00;101637.78;5052942;28;20359;-56
2023/01/05 00:41:58;;;;;;;35.42;6.25;;;;;;;9.43;100.00;101640.53;5049213;28;20505;-55
2023/01/05 00:44:23;;;;;;;30.83;5.95;;;;;;;9.42;100.00;101641.47;5051910;28;20032;-55
2023/01/05 00:46:49;;;;;;;30.85;6.50;;;;;;;9.39;100.00;101645.16;5051966;28;20070;-57
2023/01/05 00:49:14;;;;;;;32.53;6.05;;;;;;;9.37;100.00;101649.69;5050651;28;20041;-55
2023/01/05 00:51:40;;;;;;;27.52;5.45;;;;;;;9.35;100.00;101648.06;5050689;28;20021;-57
2023/01/05 00:54:05;;;;;;;30.98;6.00;;;;;;;9.32;100.00;101649.09;5052512;28;20032;-55
2023/01/05 00:56:31;;;;;;;34.33;7.05;;;;;;;9.28;100.00;101644.94;5056156;28;20758;-55
2023/01/05 00:58:57;;;;;;;29.25;5.70;;;;;;;9.26;100.00;101649.47;5048177;28;20459;-56
2023/01/05 01:01:22;;;;;;;28.45;6.28;;;;;;;9.22;100.00;101643.47;5062872;28;21042;-56
2023/01/05 01:03:48;;;;;;;33.70;5.82;;;;;;;9.18;100.00;101638.47;5056385;28;20483;-56
2023/01/05 01:06:14;;;;;;;30.50;6.00;;;;;;;9.13;100.00;101651.97;5055787;28;20049;-55
2023/01/05 01:08:40;;;;;;;30.40;5.93;;;;;;;9.11;100.00;101650.34;5047641;28;20048;-57
2023/01/05 01:11:07;;;;;;;39.55;7.43;;;;;;;9.07;100.00;101652.31;5053909;28;20467;-56
2023/01/05 01:13:33;;;;;;;31.38;6.90;;;;;;;9.05;100.00;101654.22;5056297;28;20111;-56
2023/01/05 01:16:06;;;;;;;33.80;6.05;;;;;;;9.03;100.00;101656.09;5052194;28;20045;-56
2023/01/05 01:18:32;;;;;;;30.58;5.93;;;;;;;9.00;100.00;101653.63;5049054;28;20025;-56
2023/01/05 01:20:57;;;;;;;29.10;6.20;;;;;;;8.97;100.00;101656.44;5055550;28;20029;-56
2023/01/05 01:23:23;;;;;;;35.05;6.90;;;;;;;8.93;100.00;101666.38;5055385;28;20025;-56
2023/01/05 01:25:48;;;;;;;26.27;6.43;;;;;;;8.91;100.00;101665.59;5055536;28;20021;-56
2023/01/05 01:28:14;;;;;;;36.47;7.10;;;;;;;8.88;100.00;101677.22;5055412;28;20479;-56
2023/01/05 01:30:39;;;;;;;31.55;5.93;;;;;;;8.85;100.00;101669.44;5055799;28;20028;-57
2023/01/05 01:33:05;;;;;;;35.63;6.63;;;;;;;8.82;100.00;101668.75;5055313;28;20462;-54
2023/01/05 01:35:30;;;;;;;30.90;6.50;;;;;;;8.82;100.00;101676.69;5055496;28;20025;-56
2023/01/05 01:37:55;;;;;;;34.58;6.18;;;;;;;8.79;100.00;101682.16;5053954;28;20394;-55
2023/01/05 01:40:20;;;;;;;30.95;6.55;;;;;;;8.79;100.00;101682.16;5058326;28;20035;-57
2023/01/05 01:42:46;;;;;;;34.22;6.85;;;;;;;8.77;100.00;101681.41;5055185;28;20398;-55
2023/01/05 01:45:18;;;;;;;26.85;6.47;;;;;;;8.77;100.00;101681.41;5055700;28;20395;-56
2023/01/05 01:47:53;;;;;;;37.22;6.88;;;;;;;8.77;100.00;101692.84;5056276;28;20039;-55
2023/01/05 01:50:23;;;;;;;34.03;6.75;;;;;;;8.77;100.00;101692.00;5055510;28;20020;-57
2023/01/05 01:52:55;;;;;;;38.28;7.35;;;;;;;8.78;100.00;101686.63;5054809;28;20103;-57
2023/01/05 01:55:21;;;;;;;30.67;6.75;;;;;;;8.78;100.00;101693.72;5055674;28;20025;-55
2023/01/05 01:57:49;;;;;;;29.60;6.60;;;;;;;8.79;100.00;101691.00;5055036;28;20442;-56
2023/01/05 02:00:14;;;;;;;37.30;6.93;;;;;;;8.82;100.00;101700.53;5046571;28;20025;-57
2023/01/05 02:02:40;;;;;;;31.20;6.15;;;;;;;8.81;100.00;101699.69;5053781;28;20032;-56
2023/01/05 02:05:10;;;;;;;36.92;7.63;;;;;;;8.85;100.00;101700.38;5055106;28;20037;-56
2023/01/05 02:07:43;;;;;;;33.92;6.75;;;;;;;8.87;100.00;101691.38;5054559;28;20562;-55
2023/01/05 02:10:09;;;;;;;37.13;7.13;;;;;;;8.87;100.00;101688.75;5054360;28;20035;-57
2023/01/05 02:12:38;;;;;;;30.95;6.00;;;;;;;8.87;100.00;101701.97;5054266;28;20136;-57
2023/01/05 02:15:15;;;;;;;37.07;7.30;;;;;;;8.88;100.00;101700.22;5053452;28;20171;-56
2023/01/05 02:17:59;;;;;;;32.10;6.35;;;;;;;8.87;100.00;101695.84;5041614;28;20047;-56
2023/01/05 02:20:31;;;;;;;40.83;6.70;;;;;;;8.89;100.00;101702.78;5049556;28;20034;-55
2023/01/05 02:23:17;;;;;;;35.22;6.63;;;;;;;8.91;100.00;101699.16;5048094;28;20451;-56
2023/01/05 02:26:20;;;;;;;37.92;6.90;;;;;;;8.93;100.00;101692.00;5053289;28;20044;-55
2023/01/05 02:28:58;;;;;;;35.95;6.43;;;;;;;8.93;100.00;101692.00;5047358;28;20383;-56
2023/01/05 02:31:30;;;;;;;35.85;6.55;;;;;;;8.95;100.00;101698.06;5053949;28;20474;-55
2023/01/05 02:34:47;;;;;;;31.73;5.75;;;;;;;8.97;100.00;101694.38;5052537;28;20027;-52
2023/01/05 02:37:42;;;;;;;33.20;6.10;;;;;;;8.97;100.00;101701.47;4996678;28;20072;-56
2023/01/05 02:40:18;;;;;;;31.80;6.10;;;;;;;8.97;100.00;101698.84;5053969;28;20074;-55
2023/01/05 02:42:46;;;;;;;30.98;5.70;;;;;;;8.96;100.00;101703.28;5049596;28;20056;-55
2023/01/05 02:45:15;;;;;;;35.70;7.05;;;;;;;8.98;100.00;101703.19;5047540;28;20065;-56
2023/01/05 02:47:42;;;;;;;34.43;6.73;;;;;;;8.99;100.00;101710.19;5043735;28;20078;-55
2023/01/05 02:50:59;;;;;;;27.05;6.05;;;;;;;9.03;100.00;101707.28;5042793;28;20040;-52
2023/01/05 02:53:32;;;;;;;39.65;6.35;;;;;;;9.04;100.00;101705.50;4953955;28;20039;-55
2023/01/05 02:56:17;;;;;;;36.20;6.90;;;;;;;9.05;100.00;101708.06;5047065;28;20033;-55
2023/01/05 02:58:51;;;;;;;28.70;6.43;;;;;;;9.06;100.00;101711.56;5055324;28;20044;-58
2023/01/05 03:01:29;;;;;;;33.30;6.32;;;;;;;9.10;100.00;101709.59;5050402;28;20029;-57
2023/01/05 03:04:23;;;;;;;31.95;6.15;;;;;;;9.09;100.00;101714.03;5048764;28;20024;-57
2023/01/05 03:06:55;;;;;;;31.27;6.53;;;;;;;9.11;100.00;101706.88;5036893;28;20043;-56
2023/01/05 03:09:27;;;;;;;32.00;6.13;;;;;;;9.13;100.00;101720.88;5055149;28;20029;-57
2023/01/05 03:15:12;;;;;;;30.23;6.10;;;;;;;9.19;100.00;101711.72;5054822;28;20040;-55
2023/01/05 03:17:43;;;;;;;26.45;5.60;;;;;;;9.19;100.00;101717.03;5033642;28;20044;-56
2023/01/05 03:20:12;;;;;;;28.52;6.30;;;;;;;9.21;100.00;101725.75;5042773;28;20029;-56
2023/01/05 03:37:12;;;;;;;31.90;6.13;;;;;;;9.26;100.00;101723.69;5049918;28;20040;-55
2023/01/05 03:39:41;;;;;;;27.05;6.10;;;;;;;9.26;100.00;101726.34;5051519;28;20029;-53
2023/01/05 03:42:08;;;;;;;31.63;5.93;;;;;;;9.26;100.00;101729.84;5047149;28;20052;-58
2023/01/05 03:44:36;;;;;;;36.47;6.90;;;;;;;9.28;100.00;101732.41;5054617;28;20426;-56
2023/01/05 03:47:02;;;;;;;37.92;6.10;;;;;;;9.30;100.00;101722.56;5053783;28;20025;-55
2023/01/05 03:49:27;;;;;;;32.13;6.72;;;;;;;9.31;100.00;101731.38;5054234;28;20047;-57
2023/01/05 03:51:53;;;;;;;34.10;6.72;;;;;;;9.33;100.00;101732.16;5052949;28;20539;-56
2023/01/05 03:54:18;;;;;;;29.30;5.38;;;;;;;9.34;100.00;101733.84;5041989;28;20029;-55
2023/01/05 03:56:44;;;;;;;28.80;5.90;;;;;;;9.34;100.00;101731.19;5054222;28;20048;-55
2023/01/05 03:59:10;;;;;;;30.98;5.90;;;;;;;9.34;100.00;101745.34;5054521;28;20025;-54
2023/01/05 04:01:36;;;;;;;30.00;5.32;;;;;;;9.38;100.00;101735.41;5042526;28;20071;-57
2023/01/05 04:04:01;;;;;;;36.13;6.30;;;;;;;9.39;100.00;101737.09;5054270;28;20483;-56
2023/01/05 04:06:27;;;;;;;33.78;7.05;;;;;;;9.42;100.00;101739.56;5053997;28;20055;-55
2023/01/05 04:08:52;;;;;;;34.45;7.05;;;;;;;9.41;100.00;101735.22;5050242;28;20025;-57
2023/01/05 04:11:20;;;;;;;29.00;5.82;;;;;;;9.42;100.00;101743.06;5054256;28;20032;-54
2023/01/05 04:13:46;;;;;;;31.60;6.23;;;;;;;9.44;100.00;101741.19;5054263;28;20053;-56
2023/01/05 04:16:12;;;;;;;36.33;6.65;;;;;;;9.44;100.00;101729.72;5052812;28;20027;-56
2023/01/05 04:18:37;;;;;;;35.42;6.28;;;;;;;9.44;100.00;101732.38;5042787;28;20071;-56
2023/01/05 04:21:03;;;;;;;36.28;6.82;;;;;;;9.44;100.00;101742.97;5054002;28;20082;-57
2023/01/05 04:23:29;;;;;;;35.63;6.55;;;;;;;9.44;100.00;101742.97;5045339;28;20525;-55
2023/01/05 04:25:55;;;;;;;26.30;5.45;;;;;;;9.43;100.00;101744.78;5053782;28;20052;-57
2023/01/05 04:28:21;;;;;;;33.25;6.03;;;;;;;9.45;100.00;101742.88;5053277;28;20047;-56
2023/01/05 04:30:51;;;;;;;32.47;6.07;;;;;;;9.47;100.00;101739.31;5057229;28;20053;-56
2023/01/05 04:33:18;;;;;;;29.33;5.93;;;;;;;9.47;100.00;101739.31;5049923;28;20075;-56
2023/01/05 04:35:44;;;;;;;28.45;5.88;;;;;;;9.45;100.00;101734.09;5057353;28;20025;-55
2023/01/05 04:38:10;;;;;;;29.33;6.32;;;;;;;9.46;100.00;101741.13;5058116;28;20072;-55
2023/01/05 04:40:35;;;;;;;31.42;6.47;;;;;;;9.47;100.00;101744.63;5051093;28;20022;-57
2023/01/05 04:43:01;;;;;;;37.22;6.47;;;;;;;9.47;100.00;101741.97;5048053;28;20076;-56
2023/01/05 04:45:26;;;;;;;29.80;6.03;;;;;;;9.46;100.00;101735.81;5046317;28;20029;-57
2023/01/05 04:47:52;;;;;;;35.22;7.57;;;;;;;9.49;100.00;101737.41;5054716;28;20103;-57
2023/01/05 04:50:18;;;;;;;32.83;6.40;;;;;;;9.50;100.00;101739.13;5044045;28;20030;-55
2023/01/05 04:52:43;;;;;;;26.35;5.63;;;;;;;9.52;100.00;101743.38;5047124;28;20479;-56
2023/01/05 04:55:09;;;;;;;43.33;7.32;;;;;;;9.52;100.00;101737.25;5057314;28;20136;-57
2023/01/05 04:57:34;;;;;;;28.58;6.20;;;;;;;9.50;100.00;101734.69;5048947;28;20025;-55
2023/01/05 05:00:00;;;;;;;33.03;6.38;;;;;;;9.52;100.00;101740.75;5049196;28;20025;-57
2023/01/05 05:02:27;;;;;;;28.55;5.72;;;;;;;9.51;100.00;101743.47;5044572;28;20378;-57
2023/01/05 05:04:52;;;;;;;30.92;5.65;;;;;;;9.51;100.00;101743.47;5057540;28;20029;-57
2023/01/05 05:07:18;;;;;;;36.20;6.57;;;;;;;9.52;100.00;101750.50;5058754;28;20023;-57
2023/01/05 05:09:43;;;;;;;32.80;6.50;;;;;;;9.50;100.00;101752.41;5057405;28;20021;-57
2023/01/05 05:12:09;;;;;;;31.98;5.43;;;;;;;9.51;100.00;101757.63;5056662;28;20045;-56
2023/01/05 05:14:34;;;;;;;32.22;6.03;;;;;;;9.53;100.00;101750.41;5048202;28;20065;-55
2023/01/05 05:17:00;;;;;;;33.05;6.38;;;;;;;9.52;100.00;101759.31;5048728;28;20029;-54
2023/01/05 05:19:25;;;;;;;28.98;5.95;;;;;;;9.53;100.00;101761.03;5056454;28;20433;-56
2023/01/05 05:21:51;;;;;;;30.55;6.22;;;;;;;9.55;100.00;101763.59;5056981;28;20462;-54
2023/01/05 05:24:16;;;;;;;33.13;7.10;;;;;;;9.58;100.00;101768.72;5043827;28;20021;-55
2023/01/05 05:26:41;;;;;;;36.42;6.93;;;;;;;9.58;100.00;101768.72;5057284;28;20036;-55
2023/01/05 05:29:06;;;;;;;30.80;5.63;;;;;;;9.59;100.00;101767.75;5059108;28;20032;-55
2023/01/05 05:31:32;;;;;;;35.00;6.57;;;;;;;9.58;100.00;101774.03;5066196;28;20029;-56
2023/01/05 05:33:57;;;;;;;37.05;6.78;;;;;;;9.57;100.00;101781.09;5045731;28;20028;-52
2023/01/05 05:36:23;;;;;;;34.30;6.47;;;;;;;9.56;100.00;101773.25;5056641;28;20037;-54
2023/01/05 05:38:48;;;;;;;38.22;6.65;;;;;;;9.56;100.00;101778.53;5046527;28;20021;-56
2023/01/05 05:41:13;;;;;;;39.95;7.07;;;;;;;9.55;100.00;101780.34;5061222;28;20467;-56
2023/01/05 05:43:39;;;;;;;34.53;6.50;;;;;;;9.56;100.00;101784.72;5053984;28;20029;-56
2023/01/05 05:46:05;;;;;;;38.50;6.90;;;;;;;9.54;100.00;101789.28;5056335;28;20551;-55
2023/01/05 05:48:30;;;;;;;30.10;6.28;;;;;;;9.55;100.00;101790.13;5042624;28;20136;-55
2023/01/05 05:50:55;;;;;;;34.10;6.43;;;;;;;9.56;100.00;101789.16;5046303;28;20025;-54
2023/01/05 05:53:21;;;;;;;38.38;7.10;;;;;;;9.55;100.00;101787.47;5055707;28;20078;-54
2023/01/05 05:55:48;;;;;;;35.33;6.50;;;;;;;9.55;100.00;101798.91;5050263;28;20117;-56
2023/01/05 05:58:14;;;;;;;41.05;7.50;;;;;;;9.53;100.00;101800.81;5052625;28;20025;-55
2023/01/05 06:00:39;;;;;;;38.92;6.97;;;;;;;9.52;100.00;101798.25;5056614;28;20558;-54
2023/01/05 06:03:04;;;;;;;36.53;6.65;;;;;;;9.51;100.00;101808.00;5048332;28;20111;-56
2023/01/05 06:05:30;;;;;;;41.67;6.68;;;;;;;9.52;100.00;101808.84;5062999;28;20036;-56
2023/01/05 06:07:55;;;;;;;32.85;7.07;;;;;;;9.52;100.00;101812.34;5043029;28;20487;-55
2023/01/05 06:10:20;;;;;;;36.60;7.15;;;;;;;9.51;100.00;101823.03;5056062;28;20029;-55
2023/01/05 06:12:45;;;;;;;32.63;7.63;;;;;;;9.50;100.00;101811.59;5057260;28;20049;-54
2023/01/05 06:15:11;;;;;;;33.97;6.63;;;;;;;9.50;100.00;101816.03;5045543;28;20021;-56
2023/01/05 06:17:36;;;;;;;33.53;6.40;;;;;;;9.51;100.00;101826.56;5055842;28;20222;-52
2023/01/05 06:20:01;;;;;;;30.85;6.28;;;;;;;9.51;100.00;101817.72;5053838;28;20112;-51
2023/01/05 06:22:27;;;;;;;41.10;7.05;;;;;;;9.51;100.00;101823.03;5055893;28;20445;-51
2023/01/05 06:24:52;;;;;;;34.63;6.93;;;;;;;9.50;100.00;101827.50;5050266;28;20025;-51
2023/01/05 06:27:17;;;;;;;40.88;6.90;;;;;;;9.50;100.00;101845.22;5060785;28;20455;-55
2023/01/05 06:29:43;;;;;;;34.53;6.88;;;;;;;9.48;100.00;101837.34;5055861;28;20025;-54
2023/01/05 06:32:08;;;;;;;42.03;7.22;;;;;;;9.48;100.00;101832.03;5042257;28;20026;-56
2023/01/05 06:34:33;;;;;;;44.92;7.53;;;;;;;9.51;100.00;101834.53;5055449;28;20040;-56
2023/01/05 06:36:58;;;;;;;43.42;7.90;;;;;;;9.49;100.00;101836.38;5052426;28;20100;-56
2023/01/05 06:39:24;;;;;;;38.03;7.20;;;;;;;9.48;100.00;101829.38;5055031;28;20483;-56
2023/01/05 06:41:49;;;;;;;40.28;7.10;;;;;;;9.48;100.00;101840.00;5054853;28;20514;-55
2023/01/05 06:44:14;;;;;;;42.22;7.43;;;;;;;9.47;100.00;101846.22;5054959;28;20082;-55
2023/01/05 06:46:40;;;;;;;38.22;7.05;;;;;;;9.48;100.00;101857.72;5054877;28;20122;-56
2023/01/05 06:49:05;;;;;;;39.33;7.43;;;;;;;9.49;100.00;101862.91;5047350;28;20021;-55
2023/01/05 06:51:30;;;;;;;42.30;8.02;;;;;;;9.49;100.00;101860.25;5046447;28;20059;-55
2023/01/05 06:53:55;;;;;;;45.30;8.50;;;;;;;9.49;100.00;101862.91;5054019;28;20031;-55
2023/01/05 06:56:21;;;;;;;36.58;7.50;;;;;;;9.48;100.00;101857.72;5054540;28;20025;-55
2023/01/05 06:58:46;;;;;;;44.78;7.50;;;;;;;9.48;100.00;101870.97;5029407;28;20021;-56
2023/01/05 07:01:11;;;;;;;42.05;8.15;;;;;;;9.47;100.00;101877.22;5054297;28;20055;-56
2023/01/05 07:03:37;;;;;;;39.88;7.15;;;;;;;9.46;100.00;101871.06;5047164;28;20036;-56
2023/01/05 07:06:03;;;;;;;43.95;7.10;;;;;;;9.45;100.00;101870.19;5038897;28;20033;-56
2023/01/05 07:08:28;;;;;;;43.33;7.30;;;;;;;9.45;100.00;101874.63;5039288;28;20036;-64
2023/01/05 07:10:53;;;;;;;37.83;8.00;;;;;;;9.44;100.00;101879.09;5049110;28;20032;-56
2023/01/05 07:13:19;;;;;;;36.60;7.28;;;;;;;9.45;100.00;101866.69;5053728;28;20041;-57
2023/01/05 07:15:44;;;;;;;39.53;7.60;;;;;;;9.43;100.00;101877.38;5055279;28;20170;-56
2023/01/05 07:18:10;;;;;;;37.15;6.97;;;;;;;9.43;100.00;101877.38;5036373;28;20044;-56
2023/01/05 07:20:37;;;;;;;36.17;6.85;;;;;;;9.43;100.00;101876.53;5045136;28;20453;-57
2023/01/05 07:23:02;;;;;;;37.22;7.25;;;;;;;9.44;100.00;101878.22;5040034;28;20056;-57
2023/01/05 07:25:30;;;;;;;42.85;7.72;;;;;;;9.43;100.00;101876.53;5052257;28;20508;-57
2023/01/05 07:27:56;;;;;;;45.25;8.40;;;;;;;9.42;100.00;101880.94;5050308;28;20424;-57
2023/01/05 07:30:21;;;;;;;41.90;7.63;;;;;;;9.44;100.00;101889.69;5052998;28;20029;-57
2023/01/05 07:32:47;;;;;;;47.38;8.73;;;;;;;9.43;100.00;101898.59;5049356;28;20129;-57
2023/01/05 07:35:12;;;;;;;39.95;7.47;;;;;;;9.42;100.00;101903.97;5035752;28;20037;-57
2023/01/05 07:37:38;;;;;;;45.08;8.68;;;;;;;9.41;100.00;101899.63;5036684;28;20040;-57
2023/01/05 07:40:04;;;;;;;40.60;7.60;;;;;;;9.41;100.00;101902.28;5037005;28;20132;-57
2023/01/05 07:42:29;;;;;;;37.22;7.80;;;;;;;9.42;100.00;101909.28;5034944;28;20064;-57
2023/01/05 07:44:54;;;;;;;43.15;7.82;;;;;;;9.41;100.00;101907.56;5035695;28;20036;-57
2023/01/05 07:47:20;;;;;;;37.72;8.02;;;;;;;9.40;100.00;101913.81;5038358;28;20033;-56
2023/01/05 07:49:45;;;;;;;38.72;7.40;;;;;;;9.39;100.00;101912.09;5040801;28;20053;-56
2023/01/05 07:52:11;;;;;;;47.47;9.13;;;;;;;9.38;100.00;101908.59;5039517;28;20033;-56
2023/01/05 07:54:36;;;;;;;36.55;7.25;;;;;;;9.39;100.00;101907.66;5041086;28;20070;-56
2023/01/05 07:57:02;;;;;;;43.30;7.50;;;;;;;9.40;100.00;101911.16;5041086;28;20025;-56
2023/01/05 07:59:27;;;;;;;45.08;8.63;;;;;;;9.40;100.00;101914.66;5039548;28;20120;-56
2023/01/05 08:01:52;;;;;;;40.38;7.97;;;;;;;9.39;100.00;101917.38;5038913;28;20100;-55
2023/01/05 08:04:17;;;;;;;36.15;7.53;;;;;;;9.38;100.00;101924.50;5038672;28;20461;-56
2023/01/05 08:06:43;;;;;;;43.92;7.82;;;;;;;9.37;100.00;101922.78;5042852;28;20091;-56
2023/01/05 08:11:52;;;;;;;38.83;8.38;;;;;;;9.37;100.00;101937.84;5052354;28;20112;-56
2023/01/05 08:14:19;;;;;;;49.50;9.45;;;;;;;9.36;100.00;101933.47;5052295;28;20691;-56
2023/01/05 08:16:44;;;;;;;41.85;7.68;;;;;;;9.34;100.00;101930.91;5052407;28;20104;-56
2023/01/05 08:19:10;;;;;;;38.67;7.20;;;;;;;9.37;100.00;101940.50;5047403;28;20087;-56
2023/01/05 08:21:38;;;;;;;36.88;7.47;;;;;;;9.37;100.00;101929.88;5048109;28;20028;-56
2023/01/05 08:24:03;;;;;;;37.83;7.63;;;;;;;9.37;100.00;101938.69;5048839;28;20037;-55
2023/01/05 08:26:29;;;;;;;41.03;8.15;;;;;;;9.37;100.00;101937.84;5045384;28;20505;-56
2023/01/05 08:28:54;;;;;;;40.38;7.78;;;;;;;9.37;100.00;101943.97;5040117;28;20534;-56
2023/01/05 08:31:23;;;;;;;43.65;8.43;;;;;;;9.37;100.00;101953.75;5044978;28;20061;-56
2023/01/05 08:33:48;;;;;;;40.63;7.77;;;;;;;9.37;100.00;101954.59;5040901;28;20060;-55
2023/01/05 08:36:17;;;;;;;50.50;8.02;;;;;;;9.38;100.00;101951.00;5048527;28;20303;-56
2023/01/05 08:38:48;;;;;;;39.05;7.32;;;;;;;9.39;100.00;101957.16;5048261;28;20037;-56
2023/01/05 08:41:19;;;;;;;43.47;7.82;;;;;;;9.38;100.00;101955.47;5049125;28;20033;-56
2023/01/05 08:43:49;;;;;;;35.78;7.07;;;;;;;9.38;100.00;101963.41;5044013;28;20442;-56
2023/01/05 08:46:15;;;;;;;37.08;7.57;;;;;;;9.38;100.00;101952.81;5050690;28;20393;-56
2023/01/05 08:48:40;;;;;;;49.35;8.23;;;;;;;9.38;100.00;101971.38;5044703;28;20479;-56
2023/01/05 08:51:06;;;;;;;34.03;6.95;;;;;;;9.38;100.00;101979.34;5034655;28;20021;-57
2023/01/05 08:53:33;;;;;;;36.30;6.65;;;;;;;9.38;100.00;101981.97;5038701;28;20036;-58
2023/01/05 08:55:59;;;;;;;48.83;8.50;;;;;;;9.39;100.00;101986.31;5050400;28;20462;-56
2023/01/05 08:58:25;;;;;;;53.53;9.25;;;;;;;9.40;100.00;101993.34;5048312;28;20088;-57
2023/01/05 09:00:52;;;;;;;45.80;7.07;;;;;;;9.40;100.00;101980.09;5043464;28;20422;-58
2023/01/05 09:03:17;;;;;;;42.40;7.03;;;;;;;9.42;100.00;101994.13;5046301;28;20053;-57
2023/01/05 09:05:42;;;;;;;36.83;7.72;;;;;;;9.44;100.00;101989.59;5043077;28;20550;-56
2023/01/05 09:08:08;;;;;;;37.63;6.75;;;;;;;9.45;100.00;101992.16;5049971;28;20055;-57
2023/01/05 09:10:33;;;;;;;38.92;8.55;;;;;;;9.48;100.00;101995.63;5043955;28;20510;-57
2023/01/05 09:12:58;;;;;;;37.08;7.68;;;;;;;9.51;100.00;102008.69;5047855;28;20079;-56
2023/01/05 09:15:24;;;;;;;43.60;8.20;;;;;;;9.53;100.00;102005.03;5047599;28;20037;-57
2023/01/05 09:17:49;;;;;;;36.10;6.88;;;;;;;9.54;100.00;102003.22;5036068;28;20571;-57
2023/01/05 09:20:14;;;;;;;41.78;7.90;;;;;;;9.56;100.00;102009.28;5051017;28;20029;-57
2023/01/05 09:22:40;;;;;;;40.60;8.32;;;;;;;9.58;100.00;102002.13;5047199;28;20111;-57
2023/01/05 09:25:05;;;;;;;36.42;6.90;;;;;;;9.58;100.00;102008.28;5048775;28;20029;-55
2023/01/05 09:27:31;;;;;;;42.10;7.32;;;;;;;9.59;100.00;102006.47;5044960;28;20032;-55
2023/01/05 09:29:57;;;;;;;47.20;8.13;;;;;;;9.60;100.00;102008.19;5043035;28;20069;-55
2023/01/05 09:32:23;;;;;;;43.00;8.30;;;;;;;9.62;100.00;102011.63;5053014;28;20056;-56
2023/01/05 09:34:48;;;;;;;44.50;7.63;;;;;;;9.64;100.00;102015.03;5045775;28;20082;-57
2023/01/05 09:37:13;;;;;;;43.75;7.57;;;;;;;9.65;100.00;102024.72;5036396;28;20540;-55
2023/01/05 09:39:39;;;;;;;39.63;7.72;;;;;;;9.66;100.00;102021.16;5038829;28;20025;-56
2023/01/05 09:42:08;;;;;;;50.38;8.23;;;;;;;9.67;100.00;102029.94;5046143;28;20538;-56
2023/01/05 09:44:42;;;;;;;;;;;;;;;9.72;100.00;102034.06;5044064;28;20087;-54
2023/01/05 09:47:30;;;;;;;38.80;7.25;;;;;;;9.69;100.00;102026.28;5053611;28;19908;-55
2023/01/05 09:49:57;;;;;;;37.80;7.68;;;;;;;9.69;100.00;102031.59;5045994;28;20079;-56
2023/01/05 09:52:24;;;;;;;41.13;8.40;;;;;;;9.70;100.00;102038.59;5046362;28;20087;-57
2023/01/05 09:54:49;;;;;;;34.35;7.10;;;;;;;9.71;100.00;102035.00;5046965;28;20059;-57
2023/01/05 09:57:23;;;;;;;40.65;7.95;;;;;;;9.74;100.00;102041.94;5044157;28;20031;-56
2023/01/05 10:00:05;;;;;;;40.47;8.48;;;;;;;9.76;100.00;102046.22;5048679;28;20064;-56
2023/01/05 10:02:36;;;;;;;40.95;7.78;;;;;;;9.75;100.00;102041.84;5053703;28;20036;-56
2023/01/05 10:05:04;;;;;;;38.80;7.35;;;;;;;9.76;100.00;102045.38;5051798;28;20348;-52
2023/01/05 10:07:46;;;;;;;45.30;8.52;;;;;;;9.77;100.00;102047.94;5052471;28;20116;-56
2023/01/05 10:13:01;;;;;;;44.03;8.68;;;;;;;9.79;100.00;102055.81;5041313;28;20033;-57
2023/01/05 10:13:33;;;;;;;40.15;7.82;;;;;;;9.77;100.00;102055.88;4989569;28;20038;-57
2023/01/05 10:15:58;;;;;;;38.97;7.63;;;;;;;9.78;100.00;102054.97;4999309;28;20026;-56
2023/01/05 10:18:26;;;;;;;39.25;7.75;;;;;;;9.79;100.00;102054.03;4999185;28;20073;-56
2023/01/05 10:21:34;;;;;;;38.72;7.15;;;;;;;9.82;100.00;102053.88;4997057;28;20033;-54
2023/01/05 10:24:34;;;;;;;41.05;7.60;;;;;;;9.86;100.00;102064.28;4994532;28;20548;-54
2023/01/05 10:27:14;;;;;;;44.42;7.53;;;;;;;9.85;100.00;102063.44;4999414;28;20451;-55
2023/01/05 10:29:48;;;;;;;38.38;7.70;;;;;;;9.88;100.00;102070.41;5000985;28;20083;-55
2023/01/05 10:32:34;;;;;;;40.45;7.57;;;;;;;9.92;100.00;102067.47;4998932;28;20042;-57
2023/01/05 10:35:02;;;;;;;39.80;7.30;;;;;;;9.93;100.00;102066.53;4982485;28;20266;-55
2023/01/05 10:37:45;;;;;;;36.03;7.80;;;;;;;9.93;100.00;102071.84;4998670;28;20488;-54
2023/01/05 10:40:21;;;;;;;44.97;9.18;;;;;;;9.96;100.00;102073.50;5005544;28;20084;-56
2023/01/05 10:43:02;;;;;;;38.88;8.90;;;;;;;9.95;100.00;102055.84;5009316;28;20044;-57
2023/01/05 10:45:30;;;;;;;34.63;7.38;;;;;;;9.96;100.00;102065.53;5009387;28;20034;-56
2023/01/05 10:47:56;;;;;;;37.75;7.38;;;;;;;9.95;100.00;102067.31;5007272;28;20060;-56
2023/01/05 10:50:40;;;;;;;43.63;7.85;;;;;;;9.96;100.00;102066.38;5009417;28;20443;-57
2023/01/05 10:53:18;;;;;;;41.47;8.02;;;;;;;9.96;100.00;102065.53;5012951;28;20380;-57
2023/01/05 10:55:55;;;;;;;43.75;8.23;;;;;;;9.97;100.00;102076.03;5013076;28;20041;-57
2023/01/05 10:58:23;;;;;;;41.53;7.78;;;;;;;9.96;100.00;102070.84;5007391;28;20026;-56
2023/01/05 11:00:51;;;;;;;42.08;7.32;;;;;;;9.97;100.00;102077.84;5013283;28;20033;-57
2023/01/05 11:03:22;;;;;;;39.28;8.00;;;;;;;9.96;100.00;102073.50;5003541;28;20543;-56
2023/01/05 11:05:48;;;;;;;48.67;8.07;;;;;;;9.98;100.00;102082.22;5007568;28;20040;-57
2023/01/05 11:08:17;;;;;;;40.40;7.82;;;;;;;9.98;100.00;102076.91;5007083;28;20018;-57
2023/01/05 11:11:01;;;;;;;35.38;7.97;;;;;;;10.00;100.00;102083.00;5003032;28;20058;-56
2023/01/05 11:13:48;;;;;;;39.75;8.40;;;;;;;10.01;100.00;102076.75;5043868;28;20118;-57
2023/01/05 11:16:19;;;;;;;46.72;8.40;;;;;;;10.02;100.00;102066.97;5049755;28;20113;-56
2023/01/05 11:19:03;;;;;;;42.28;7.85;;;;;;;10.06;100.00;102081.78;5052258;28;20037;-57
2023/01/05 11:21:34;;;;;;;33.63;7.75;;;;;;;10.05;100.00;102080.94;5049801;28;20056;-55
2023/01/05 11:24:01;;;;;;;41.97;8.95;;;;;;;10.06;100.00;102072.03;5052303;28;20029;-55
2023/01/05 11:26:31;;;;;;;41.63;8.75;;;;;;;10.07;100.00;102081.72;5044037;28;20040;-55
2023/01/05 11:28:59;;;;;;;37.00;7.97;;;;;;;10.08;100.00;102074.63;5051683;28;20025;-55
2023/01/05 11:31:34;;;;;;;40.17;8.00;;;;;;;10.08;100.00;102069.31;5047586;28;20041;-57
2023/01/05 11:34:07;;;;;;;40.28;7.75;;;;;;;10.09;100.00;102065.69;5044055;28;20036;-56
2023/01/05 11:36:33;;;;;;;36.78;7.80;;;;;;;10.10;100.00;102059.47;5049603;28;20049;-55
2023/01/05 11:38:58;;;;;;;40.75;8.52;;;;;;;10.13;99.96;102064.59;5050418;28;20360;-56
2023/01/05 11:41:24;;;;;;;36.70;8.13;;;;;;;10.12;100.00;102057.56;5048800;28;20064;-56
2023/01/05 11:43:51;;;;;;;40.75;7.72;;;;;;;10.14;99.78;102055.69;5045250;28;20394;-57
2023/01/05 11:46:17;;;;;;;34.47;7.43;;;;;;;10.14;100.00;102058.34;5045898;28;20566;-57
2023/01/05 11:48:53;;;;;;;42.63;8.30;;;;;;;10.16;100.00;102054.66;5049574;28;20132;-56
2023/01/05 11:51:37;;;;;;;37.50;7.75;;;;;;;10.18;100.00;102058.09;5051564;28;20403;-57
2023/01/05 11:54:03;;;;;;;42.97;7.60;;;;;;;10.17;99.81;102061.69;5051808;28;20498;-56
2023/01/05 11:56:28;;;;;;;38.92;8.40;;;;;;;10.17;99.98;102058.16;5040831;28;20351;-57